Taos, NM

1:51 AM MDT on October 26, 2014 (GMT -0600)
Los Alamos | Change Station
CLOSE
Current Station
Airport
Location: Los Alamos,
Elevation: 7172 ft
Nearby Weather Stations

Elev 7172 ft 35.88 °N, 106.27 °W | Updated 16 minutes ago

Clear
Clear
60 °F
Feels Like 60 °F
N
7
Wind Variable Wind from WNW

Today
High -- | Low -- °F
--% Chance of Precip.
Yesterday
High -- | Low -- °F
Precip. -- in
7:19 AM 6:12 PM
Waxing Crescent, 6% visible
Pressure 30.26 in
Visibility 10.0 miles
Clouds Clear
Dew Point 32 °F
Humidity 35%
Rainfall 0.00 in
Snow Depth Not available.
UV 0 out of 12
Pollen 2.70 out of 12
Air Quality Not available.
Flu Activity Sporadic
METAR KLAM 260735Z AUTO 29006KT 10SM CLR 16/00 A3026 RMK AO2 T01560000

More Conditions Fewer Conditions

Pressure 30.26 in
Visibility 10.0 miles
Clouds Clear
Dew Point 32 °F
Humidity 35%
Rainfall 0.00 in
Snow Depth Not available.
UV 0 out of 12
Pollen 2.70 out of 12
Air Quality Not available.
Flu Activity Sporadic
METAR KLAM 260735Z AUTO 29006KT 10SM CLR 16/00 A3026 RMK AO2 T01560000

More Conditions Fewer Conditions

10-Day Weather Forecast

Almanac

Astronomy

Oct. 26, 2014 Rise Set
Actual Time 7:19 AM MDT 6:12 PM MDT
Civil Twilight 6:53 AM MDT 6:38 PM MDT
Nautical Twilight 6:23 AM MDT 7:08 PM MDT
Astronomical Twilight 5:53 AM MDT 7:38 PM MDT
Moon 9:57 AM MDT 8:29 PM MDT
Length of Visible Light 11h 45m
Length of Day
10h 52m
Tomorrow will be 2m 7s shorter.
Waxing Crescent, 6% of the Moon is Illuminated
Today
Waxing Crescent
Oct 30
First Quarter
Nov 6
Full
Nov 14
Last Quarter
Nov 22
New

Today's Extremes

State Highs State Lows

Community

WunderPhotos

Upload Photos

1,765,115 photos uploaded!

Nearby

Snow Depth

Station Depth Elevation
Gallegos Peak 0 in 9800 ft
Red River Pass #2 0 in 9850 ft
Bateman 0 in 9300 ft
Elk Cabin 0 in 8210 ft
Wesner Springs 0 in 11120 ft

Earthquake Activity

City Distance Mag. Time & Date
No recent earthquake activity has been reported nearby.
Minimum magnitude displayed is 2.5.

Coastal Water Temperatures

Place Temperature
No Stations Reporting

Nearby Weather Stations